»·PEaware :: N660PS KSNA-KBUR

N660PS :: KSNA-KBUR

FLIGHT INFORMATION

Flight Status: Arrived
Operator: Privately registered:
United States
More flights under this callsign
Pilot: Rani C. (23025)
Aircraft: Unknown
(DA40)
More flights by this aircraft type
Origin: KSNA John Wayne-Orange Co
United States
Destination: KBUR Bob Hope-Burbank
United States
More flights between these airports :: More routes between these airports
Route: KSNA SLI V23 POPPR SMO125R SMO SMO311R SILEX KBUR
File this flight plan on PilotEdge
Remarks:
Altitude:
(Current/Filed)
4,000ft
Speed:
(Current/Filed)
120kts
Departed: 07-Feb-19 07:38 PM
Arrived: 07-Feb-19 08:16 PM
Distance/Time
Traveled:
40nm/0:38
Distance/Time
To Go:
Arrived

Flight Plot

Page will automatically refresh every two minutes.


Map Options




Map Legend


Flown Route
Filed Route
Departure Airport
Arrival Airport
Navaid (VOR, NDB)
Fix

Horizontal Profiles

Position Reports

Time Latitude Longitude Heading Altitude Ground
Speed
07-Feb-19 19:19 33.671190 -117.868027 210 59ft 0kts
07-Feb-19 19:20 33.671190 -117.868027 210 59ft 0kts
07-Feb-19 19:21 33.671190 -117.868027 210 59ft 0kts
07-Feb-19 19:22 33.671190 -117.868027 210 59ft 0kts
07-Feb-19 19:23 33.671190 -117.868027 210 59ft 0kts
07-Feb-19 19:24 33.671190 -117.868027 210 59ft 0kts
07-Feb-19 19:25 33.671190 -117.868027 210 59ft 0kts
07-Feb-19 19:26 33.671190 -117.868027 210 59ft 0kts
07-Feb-19 19:27 33.671190 -117.868027 210 59ft 0kts
07-Feb-19 19:28 33.671190 -117.868027 210 59ft 0kts
07-Feb-19 19:29 33.671190 -117.868027 210 59ft 0kts
07-Feb-19 19:30 33.671190 -117.868027 210 59ft 0kts
07-Feb-19 19:31 33.671190 -117.868027 210 59ft 0kts
07-Feb-19 19:32 33.671662 -117.868424 32 59ft 8kts
07-Feb-19 19:33 33.674065 -117.867112 29 59ft 6kts
07-Feb-19 19:34 33.676025 -117.865882 28 59ft 14kts
07-Feb-19 19:35 33.679541 -117.863647 30 59ft 7kts
07-Feb-19 19:36 33.679916 -117.863559 305 59ft 0kts
07-Feb-19 19:37 33.675740 -117.867430 217 206ft 65kts
07-Feb-19 19:38 33.662938 -117.887539 236 1170ft 88kts
07-Feb-19 19:39 33.647781 -117.912985 233 1839ft 115kts
07-Feb-19 19:40 33.628934 -117.943123 229 2498ft 94kts
07-Feb-19 19:41 33.614549 -117.966576 230 3556ft 85kts
07-Feb-19 19:42 33.598868 -117.994429 237 3980ft 107kts
07-Feb-19 19:43 33.611139 -118.027469 333 3840ft 133kts
07-Feb-19 19:44 33.644995 -118.045730 340 3804ft 134kts
07-Feb-19 19:45 33.672624 -118.050282 354 3762ft 134kts
07-Feb-19 19:46 33.684578 -118.057813 299 3791ft 127kts
07-Feb-19 19:47 33.700171 -118.095759 293 3792ft 128kts
07-Feb-19 19:48 33.716802 -118.133653 296 3817ft 129kts
07-Feb-19 19:49 33.735613 -118.171064 301 3804ft 131kts
07-Feb-19 19:50 33.760104 -118.204045 320 3797ft 133kts
07-Feb-19 19:51 33.788671 -118.232371 319 3811ft 132kts
07-Feb-19 19:52 33.816483 -118.261886 316 3804ft 134kts
07-Feb-19 19:53 33.843216 -118.293120 315 3803ft 134kts
07-Feb-19 19:54 33.872633 -118.320625 329 3783ft 131kts
07-Feb-19 19:55 33.901943 -118.346382 316 3799ft 130kts
07-Feb-19 19:56 33.928812 -118.375485 319 3819ft 129kts
07-Feb-19 19:57 33.957183 -118.402612 320 3804ft 129kts
07-Feb-19 19:58 33.983789 -118.432032 312 3774ft 128kts
07-Feb-19 19:59 34.011918 -118.457595 315 3778ft 126kts
07-Feb-19 20:00 34.038735 -118.484757 320 3797ft 125kts
07-Feb-19 20:01 34.065045 -118.512305 315 3760ft 126kts
07-Feb-19 20:02 34.091990 -118.538940 317 3771ft 125kts
07-Feb-19 20:03 34.117868 -118.566364 317 3800ft 123kts
07-Feb-19 20:04 34.144714 -118.593394 319 3780ft 127kts
07-Feb-19 20:05 34.172083 -118.620069 321 3780ft 129kts
07-Feb-19 20:06 34.200067 -118.615798 87 3743ft 124kts
07-Feb-19 20:07 34.200754 -118.575189 96 3754ft 118kts
07-Feb-19 20:08 34.200112 -118.542045 89 3570ft 86kts
07-Feb-19 20:09 34.199764 -118.512811 95 3126ft 89kts
07-Feb-19 20:10 34.199556 -118.482177 93 2641ft 93kts
07-Feb-19 20:11 34.199441 -118.450246 95 2121ft 94kts
07-Feb-19 20:12 34.198409 -118.417921 91 1577ft 95kts
07-Feb-19 20:13 34.198178 -118.388379 93 1130ft 76kts
07-Feb-19 20:14 34.197841 -118.364591 94 720ft 48kts
07-Feb-19 20:15 34.198582 -118.360396 346 717ft 0kts
07-Feb-19 20:16 34.198902 -118.360280 13 718ft 2kts
07-Feb-19 20:17 34.198937 -118.360275 7 718ft 0kts

Navigation Log

Ident Type
Flight plan parsing failed, navigation log unavailable